createdAt,value
2023-08-26T00:00:13.179Z,12.95
2023-08-26T00:02:40.257Z,12.52
2023-08-26T00:05:07.899Z,12.18
2023-08-26T00:07:35.253Z,12.35
2023-08-26T00:10:02.505Z,12.65
2023-08-26T00:12:31.164Z,12.63
2023-08-26T00:15:04.593Z,11.75
2023-08-26T00:17:34.032Z,12.27
2023-08-26T00:20:02.144Z,12.55
2023-08-26T00:22:31.197Z,12.48
2023-08-26T00:24:58.478Z,12.07
2023-08-26T00:27:25.606Z,12.63
2023-08-26T00:29:52.789Z,12.38
2023-08-26T00:32:22.329Z,11.40
2023-08-26T00:34:49.546Z,11.88
2023-08-26T00:37:16.917Z,11.60
2023-08-26T00:39:44.137Z,10.63
2023-08-26T00:42:11.325Z,10.80
2023-08-26T00:44:38.555Z,11.35
2023-08-26T00:47:06.022Z,10.68
2023-08-26T00:49:35.832Z,10.70
2023-08-26T00:52:03.252Z,12.45
2023-08-26T00:54:33.705Z,12.43
2023-08-26T00:57:01.064Z,10.98
2023-08-26T00:59:28.348Z,11.18
2023-08-26T01:01:56.425Z,11.45
2023-08-26T01:04:23.715Z,10.52
2023-08-26T01:06:50.879Z,10.73
2023-08-26T01:09:20.329Z,11.38
2023-08-26T01:11:58.080Z,10.65
2023-08-26T01:14:35.357Z,12.48
2023-08-26T01:17:05.199Z,11.18
2023-08-26T01:19:35.435Z,11.18
2023-08-26T01:22:06.671Z,11.95
2023-08-26T01:24:35.539Z,11.15
2023-08-26T01:27:03.830Z,9.50
2023-08-26T01:29:31.171Z,11.23
2023-08-26T01:32:36.802Z,9.27
2023-08-26T01:35:08.697Z,8.30
2023-08-26T01:37:40.055Z,8.65
2023-08-26T01:40:11.090Z,8.20
2023-08-26T01:42:41.723Z,7.63
2023-08-26T01:45:09.899Z,8.98
2023-08-26T01:47:37.289Z,8.75
2023-08-26T01:50:04.940Z,8.30
2023-08-26T01:52:32.146Z,8.20
2023-08-26T01:54:59.494Z,10.80
2023-08-26T01:57:26.848Z,11.02
2023-08-26T01:59:54.018Z,6.95
2023-08-26T02:02:22.341Z,7.05
2023-08-26T02:04:49.467Z,6.50
2023-08-26T02:07:18.420Z,6.60
2023-08-26T02:09:45.932Z,6.90
2023-08-26T02:12:13.035Z,6.55
2023-08-26T02:14:40.272Z,6.53
2023-08-26T02:17:27.390Z,7.68
2023-08-26T02:19:55.948Z,6.35
2023-08-26T02:22:23.207Z,9.15
2023-08-26T02:24:50.385Z,11.15
2023-08-26T02:27:19.673Z,10.73
2023-08-26T02:29:46.896Z,11.30
2023-08-26T02:32:14.437Z,8.60
2023-08-26T02:34:41.748Z,6.35
2023-08-26T02:37:08.965Z,6.13
2023-08-26T02:39:37.069Z,6.22
2023-08-26T02:42:04.605Z,6.63
2023-08-26T02:44:32.067Z,7.70
2023-08-26T02:49:41.344Z,7.00
2023-08-26T02:52:09.205Z,7.13
2023-08-26T02:54:36.961Z,7.10
2023-08-26T02:57:04.242Z,6.68
2023-08-26T02:59:31.463Z,6.70
2023-08-26T03:02:00.650Z,7.47
2023-08-26T03:04:27.923Z,7.32
2023-08-26T03:06:55.276Z,11.00
2023-08-26T03:09:22.960Z,7.72
2023-08-26T03:11:50.427Z,7.00
2023-08-26T03:14:17.660Z,8.48
2023-08-26T03:16:45.511Z,8.35
2023-08-26T03:19:14.267Z,6.25
2023-08-26T03:21:44.396Z,7.70
2023-08-26T03:24:14.347Z,8.55
2023-08-26T03:26:43.374Z,7.15
2023-08-26T03:29:15.904Z,5.50
2023-08-26T03:31:44.715Z,6.60
2023-08-26T03:34:15.315Z,7.10
2023-08-26T03:36:45.638Z,6.82
2023-08-26T03:39:15.464Z,5.18
2023-08-26T03:41:43.853Z,6.53
2023-08-26T03:44:14.748Z,7.20
2023-08-26T03:46:41.943Z,5.53
2023-08-26T03:49:15.314Z,6.90
2023-08-26T03:51:42.998Z,6.63
2023-08-26T03:54:10.791Z,5.70
2023-08-26T03:56:38.098Z,6.40
2023-08-26T03:59:06.159Z,6.38
2023-08-26T04:01:44.140Z,5.70
2023-08-26T04:04:11.875Z,6.18
2023-08-26T04:07:09.756Z,5.15
2023-08-26T04:09:37.257Z,5.93
2023-08-26T04:16:25.718Z,6.30
2023-08-26T04:18:53.879Z,6.70
2023-08-26T04:21:23.802Z,7.30
2023-08-26T04:23:53.764Z,8.23
2023-08-26T04:26:21.093Z,7.28
2023-08-26T04:28:50.342Z,7.45
2023-08-26T04:31:17.897Z,7.10
2023-08-26T04:33:45.581Z,8.55
2023-08-26T04:36:13.370Z,8.15
2023-08-26T04:38:40.541Z,7.55
2023-08-26T04:50:38.783Z,8.07
2023-08-26T04:53:06.046Z,7.75
2023-08-26T04:55:59.828Z,7.53
2023-08-26T05:00:50.875Z,6.25
2023-08-26T05:03:53.157Z,6.87
2023-08-26T05:07:20.013Z,6.82
2023-08-26T05:10:14.396Z,7.57
2023-08-26T05:13:57.884Z,6.60
2023-08-26T05:16:26.292Z,7.47
2023-08-26T05:19:25.261Z,6.80
2023-08-26T05:23:09.000Z,7.10
2023-08-26T05:25:37.019Z,6.07
2023-08-26T05:28:08.114Z,5.93
2023-08-26T05:34:42.717Z,4.95
2023-08-26T05:37:10.880Z,4.95
2023-08-26T05:45:04.230Z,4.87
2023-08-26T05:48:52.053Z,4.45
2023-08-26T05:58:19.769Z,5.90
2023-08-26T06:00:48.434Z,4.00
2023-08-26T06:03:21.006Z,3.45
2023-08-26T06:05:48.274Z,3.60
2023-08-26T06:09:34.905Z,3.65
2023-08-26T06:17:31.910Z,3.33
2023-08-26T06:53:13.183Z,3.97
2023-08-26T07:03:23.259Z,3.92
2023-08-26T07:21:54.508Z,3.40
2023-08-26T07:24:22.292Z,3.55
2023-08-26T07:33:55.094Z,3.47
2023-08-26T07:40:34.782Z,3.60
2023-08-26T07:47:17.484Z,2.80
2023-08-26T07:50:12.633Z,2.95
2023-08-26T07:56:25.739Z,3.30
2023-08-26T11:11:41.681Z,5.90
2023-08-26T13:51:43.518Z,6.30
2023-08-26T15:19:14.757Z,12.15
2023-08-26T15:24:52.939Z,8.27
2023-08-26T15:27:29.686Z,8.77
2023-08-26T15:29:58.029Z,8.80
2023-08-26T15:32:25.457Z,9.18
2023-08-26T15:34:56.976Z,9.75
2023-08-26T15:40:07.439Z,10.13
2023-08-26T15:42:40.514Z,12.75
2023-08-26T15:45:18.448Z,9.88
2023-08-26T15:47:49.382Z,10.05
2023-08-26T15:58:47.697Z,12.02
2023-08-26T16:51:26.813Z,10.90
2023-08-26T17:20:56.839Z,13.45
2023-08-26T17:37:05.860Z,14.88
2023-08-26T17:39:42.108Z,43.70
2023-08-26T17:42:12.867Z,13.65
2023-08-26T18:04:10.951Z,14.05
2023-08-26T18:11:15.276Z,14.00
2023-08-26T18:13:45.921Z,13.40
2023-08-26T18:16:13.525Z,12.60
2023-08-26T18:18:40.859Z,12.48
2023-08-26T18:37:16.381Z,11.55
2023-08-26T18:39:44.151Z,11.57
2023-08-26T18:42:13.465Z,16.45
2023-08-26T18:46:41.900Z,16.35
2023-08-26T18:49:09.254Z,20.40
2023-08-26T18:51:36.444Z,15.57
2023-08-26T18:54:03.832Z,15.73
2023-08-26T18:56:31.296Z,14.45
2023-08-26T19:03:28.788Z,13.20
2023-08-26T19:05:56.225Z,14.27
2023-08-26T19:08:23.656Z,13.70
2023-08-26T19:15:34.352Z,15.93
2023-08-26T19:20:00.967Z,13.85
2023-08-26T19:22:28.497Z,13.38
2023-08-26T19:24:57.347Z,15.57
2023-08-26T19:32:35.677Z,16.05
2023-08-26T19:35:03.039Z,17.55
2023-08-26T19:37:30.313Z,22.10
2023-08-26T19:39:57.692Z,21.77
2023-08-26T19:42:25.417Z,22.10
2023-08-26T19:49:25.690Z,21.40
2023-08-26T19:59:12.243Z,19.08
2023-08-26T20:01:39.737Z,18.67
2023-08-26T20:13:31.574Z,14.98
2023-08-26T20:20:31.694Z,15.32
2023-08-26T20:22:59.115Z,15.50
2023-08-26T20:25:34.960Z,15.30
2023-08-26T20:29:55.992Z,13.85
2023-08-26T20:32:23.599Z,15.02
2023-08-26T20:34:51.307Z,15.85
2023-08-26T20:59:33.401Z,21.55
2023-08-26T21:02:01.892Z,23.02
2023-08-26T21:12:05.885Z,22.80
2023-08-26T21:15:51.201Z,22.38
2023-08-26T21:24:38.372Z,22.63
2023-08-26T21:30:38.635Z,25.52
2023-08-26T22:02:03.157Z,24.60
2023-08-26T22:37:50.101Z,24.98
2023-08-26T22:40:17.803Z,23.75
2023-08-26T22:47:08.024Z,21.35
2023-08-26T22:49:35.527Z,24.38
2023-08-26T22:52:02.876Z,35.22
2023-08-26T22:54:30.130Z,24.33
2023-08-26T23:08:36.206Z,18.60
2023-08-26T23:11:06.526Z,17.30
2023-08-26T23:13:33.777Z,19.10
2023-08-26T23:16:01.299Z,21.25
2023-08-26T23:22:54.460Z,20.25
2023-08-26T23:25:21.889Z,21.25
2023-08-26T23:55:56.076Z,19.25
2023-08-26T23:58:23.442Z,17.40
